Time;durP1;ratioP1;P1;durP2;ratioP2;P2;SDS_P1;SDS_P2;PMS_P1;PMS_P2;Temp;Humidity;BMP_temperature;BMP_pressure;BME280_temperature;BME280_humidity;BME280_pressure;Samples;Min_cycle;Max_cycle;Signal;HPM_P1;HPM_P2
2022/01/18 00:01:07;;;;;;;15.73;11.60;;;7.50;99.90;;;;;;5054820;28;20225;-56
2022/01/18 00:03:34;;;;;;;15.07;11.90;;;7.30;99.90;;;;;;5054719;28;20738;-56
2022/01/18 00:06:00;;;;;;;15.33;11.67;;;7.40;99.90;;;;;;5054267;28;20684;-55
2022/01/18 00:08:27;;;;;;;14.93;12.13;;;7.50;99.90;;;;;;5054589;28;20210;-56
2022/01/18 00:10:54;;;;;;;16.97;11.80;;;7.50;99.90;;;;;;5054675;28;20234;-55
2022/01/18 00:13:36;;;;;;;15.43;10.33;;;7.30;99.90;;;;;;5054643;28;20217;-55
2022/01/18 00:16:27;;;;;;;14.23;11.27;;;7.10;99.90;;;;;;5054138;28;20221;-56
2022/01/18 00:18:55;;;;;;;23.70;17.00;;;7.00;99.90;;;;;;5053459;28;20588;-55
2022/01/18 00:21:30;;;;;;;16.10;12.13;;;7.10;99.90;;;;;;5054410;28;20239;-55
2022/01/18 00:23:58;;;;;;;16.30;12.00;;;7.20;99.90;;;;;;5054460;28;20263;-55
2022/01/18 00:26:28;;;;;;;13.97;11.10;;;7.40;99.90;;;;;;5054076;28;20198;-55
2022/01/18 00:29:03;;;;;;;14.23;11.00;;;7.50;99.90;;;;;;5054259;28;20214;-55
2022/01/18 00:34:21;;;;;;;17.27;12.23;;;7.60;99.90;;;;;;5054106;28;20201;-56
2022/01/18 00:39:36;;;;;;;15.23;11.63;;;7.70;99.90;;;;;;5036468;28;20750;-56
2022/01/18 00:42:03;;;;;;;15.40;11.97;;;7.70;99.90;;;;;;5053794;28;20722;-56
2022/01/18 00:44:30;;;;;;;16.43;12.27;;;7.80;99.90;;;;;;5053757;28;20670;-55
2022/01/18 00:46:58;;;;;;;16.90;12.07;;;7.90;99.90;;;;;;5053828;28;20212;-55
2022/01/18 00:49:24;;;;;;;15.80;11.60;;;7.90;99.90;;;;;;5053984;28;20205;-55
2022/01/18 00:51:55;;;;;;;15.87;11.70;;;8.00;99.90;;;;;;5053840;28;20225;-55
2022/01/18 00:54:25;;;;;;;13.80;10.60;;;8.00;99.90;;;;;;5053623;28;20675;-55
2022/01/18 00:56:54;;;;;;;15.73;12.43;;;7.90;99.90;;;;;;5053431;28;20658;-55
2022/01/18 00:59:22;;;;;;;15.27;11.93;;;8.00;99.90;;;;;;5053766;28;20255;-55
2022/01/18 01:01:49;;;;;;;14.57;12.07;;;7.90;99.90;;;;;;5053555;28;20221;-56
2022/01/18 01:04:19;;;;;;;15.80;11.93;;;7.90;99.90;;;;;;5053610;28;20206;-55
2022/01/18 01:06:46;;;;;;;16.03;11.77;;;7.80;99.90;;;;;;5053690;28;20488;-55
2022/01/18 01:09:13;;;;;;;15.13;11.93;;;7.80;99.90;;;;;;5053495;28;20578;-55
2022/01/18 01:11:40;;;;;;;16.20;11.67;;;7.70;99.90;;;;;;5053154;28;20599;-55
2022/01/18 01:14:11;;;;;;;14.57;11.37;;;7.50;99.90;;;;;;5053225;28;20255;-55
2022/01/18 01:16:50;;;;;;;14.83;11.70;;;7.50;99.90;;;;;;5053044;28;20324;-55
2022/01/18 01:36:05;;;;;;;16.07;11.80;;;7.80;99.90;;;;;;5052453;28;20263;-55
2022/01/18 01:44:06;;;;;;;22.00;16.73;;;7.80;99.90;;;;;;5052698;28;20764;-55
2022/01/18 01:46:34;;;;;;;15.53;12.13;;;7.90;99.90;;;;;;5052054;28;20554;-55
2022/01/18 01:49:03;;;;;;;16.17;12.50;;;7.90;99.90;;;;;;5052709;28;20212;-55
2022/01/18 01:51:31;;;;;;;17.23;13.70;;;8.00;99.90;;;;;;5052584;28;20236;-55
2022/01/18 01:54:00;;;;;;;16.93;12.90;;;8.00;99.90;;;;;;5052455;28;20212;-55
2022/01/18 01:56:28;;;;;;;16.63;13.10;;;8.10;99.90;;;;;;5051994;28;20221;-55
2022/01/18 01:58:54;;;;;;;17.03;13.53;;;8.10;99.90;;;;;;5052194;28;20678;-55
2022/01/18 02:01:21;;;;;;;16.67;12.53;;;8.10;99.90;;;;;;5052419;28;20234;-55
2022/01/18 02:03:48;;;;;;;18.87;12.63;;;8.10;99.90;;;;;;5052460;28;20300;-55
2022/01/18 02:06:16;;;;;;;17.17;13.37;;;8.10;99.90;;;;;;5051778;28;20201;-55
2022/01/18 02:08:44;;;;;;;17.93;13.33;;;8.10;99.90;;;;;;5052155;28;20209;-55
2022/01/18 02:11:11;;;;;;;15.97;12.17;;;8.10;99.90;;;;;;5052068;28;20600;-55
2022/01/18 02:13:39;;;;;;;15.20;12.13;;;8.10;99.90;;;;;;5052446;28;20271;-55
2022/01/18 02:21:46;;;;;;;17.60;12.80;;;8.10;99.90;;;;;;5051928;28;20680;-56
2022/01/18 02:21:53;;;;;;;16.13;13.17;;;7.90;99.90;;;;;;5051956;28;20332;-56
2022/01/18 02:24:22;;;;;;;15.57;12.17;;;8.00;99.90;;;;;;5052769;28;20288;-55
2022/01/18 02:26:48;;;;;;;16.90;13.47;;;8.00;99.90;;;;;;5052214;28;20557;-56
2022/01/18 02:29:16;;;;;;;16.03;12.27;;;7.90;99.90;;;;;;5052319;28;20598;-55
2022/01/18 02:31:43;;;;;;;17.73;12.77;;;7.90;99.90;;;;;;5051864;28;20820;-55
2022/01/18 02:34:12;;;;;;;16.63;12.83;;;8.00;99.90;;;;;;5051949;28;20669;-55
2022/01/18 02:36:39;;;;;;;15.80;13.00;;;8.10;99.90;;;;;;5051885;28;20278;-55
2022/01/18 02:39:08;;;;;;;17.63;12.60;;;8.10;99.90;;;;;;5052743;28;20208;-55
2022/01/18 02:41:35;;;;;;;19.17;13.17;;;8.20;99.90;;;;;;5051512;28;20286;-56
2022/01/18 02:44:07;;;;;;;16.17;12.73;;;8.20;99.90;;;;;;5052099;28;20712;-55
2022/01/18 02:46:35;;;;;;;18.47;13.90;;;8.20;99.90;;;;;;5051587;28;20205;-56
2022/01/18 02:49:03;;;;;;;15.90;12.57;;;8.20;99.90;;;;;;5051822;28;21271;-56
2022/01/18 02:51:30;;;;;;;17.20;12.70;;;8.20;99.90;;;;;;5051887;28;20707;-55
2022/01/18 02:54:01;;;;;;;16.37;13.10;;;8.20;99.90;;;;;;5051829;28;20235;-55
2022/01/18 02:56:32;;;;;;;16.47;12.87;;;8.20;99.90;;;;;;5051366;28;20228;-56
2022/01/18 02:59:05;;;;;;;18.13;13.87;;;8.20;99.90;;;;;;5051693;28;20213;-55
2022/01/18 03:04:16;;;;;;;15.07;12.37;;;8.20;99.90;;;;;;5051930;28;20200;-56
2022/01/18 03:06:43;;;;;;;16.43;13.00;;;8.30;99.90;;;;;;5051639;28;20205;-55
2022/01/18 03:09:09;;;;;;;17.83;13.27;;;8.30;99.90;;;;;;5051656;28;20205;-57
2022/01/18 03:11:38;;;;;;;17.93;13.50;;;8.20;99.90;;;;;;5051636;28;20866;-56
2022/01/18 03:14:05;;;;;;;17.97;13.13;;;8.20;99.90;;;;;;5051804;28;20217;-55
2022/01/18 03:16:31;;;;;;;22.40;13.80;;;8.20;99.90;;;;;;5051454;28;20237;-55
2022/01/18 03:18:58;;;;;;;18.13;13.43;;;8.20;99.90;;;;;;5051732;28;20210;-55
2022/01/18 03:21:25;;;;;;;17.27;14.23;;;8.20;99.90;;;;;;5051604;28;20236;-55
2022/01/18 03:23:59;;;;;;;17.50;13.63;;;8.20;99.90;;;;;;5051986;28;20270;-55
2022/01/18 03:26:32;;;;;;;20.90;15.50;;;8.10;99.90;;;;;;5051202;28;20241;-56
2022/01/18 03:28:59;;;;;;;18.23;13.43;;;8.20;99.90;;;;;;5051575;28;20739;-56
2022/01/18 03:31:26;;;;;;;21.77;14.17;;;8.20;99.90;;;;;;5051287;28;20242;-56
2022/01/18 03:33:52;;;;;;;21.70;14.47;;;8.20;99.90;;;;;;5051288;28;20618;-56
2022/01/18 03:36:19;;;;;;;19.40;13.63;;;8.20;99.90;;;;;;5051076;28;20229;-56
2022/01/18 03:38:46;;;;;;;18.57;14.07;;;8.20;99.90;;;;;;5051287;28;20206;-55
2022/01/18 03:41:12;;;;;;;19.27;13.87;;;8.10;99.90;;;;;;5051200;28;20645;-55
2022/01/18 03:43:41;;;;;;;18.07;13.67;;;8.20;99.90;;;;;;5051614;28;20635;-56
2022/01/18 03:46:10;;;;;;;18.23;13.37;;;8.20;99.90;;;;;;5051152;28;20259;-55
2022/01/18 03:48:38;;;;;;;15.93;12.80;;;8.20;99.90;;;;;;5051270;28;20623;-56
2022/01/18 03:51:08;;;;;;;19.47;14.40;;;8.20;99.90;;;;;;5051138;28;20225;-55
2022/01/18 03:53:35;;;;;;;18.87;13.67;;;8.20;99.90;;;;;;5052691;28;20209;-56
2022/01/18 03:56:03;;;;;;;19.73;13.33;;;8.20;99.90;;;;;;5054858;28;20275;-55
2022/01/18 03:58:29;;;;;;;20.53;14.00;;;8.20;99.90;;;;;;5054933;28;20573;-55
2022/01/18 04:00:56;;;;;;;17.87;13.33;;;8.00;99.90;;;;;;5054774;28;20233;-55
2022/01/18 04:03:24;;;;;;;17.20;13.60;;;7.90;99.90;;;;;;5055206;28;20201;-56
2022/01/18 04:05:52;;;;;;;20.13;13.87;;;7.90;99.90;;;;;;5054305;28;20661;-56
2022/01/18 04:08:19;;;;;;;19.40;14.03;;;8.00;99.90;;;;;;5054519;28;20668;-56
2022/01/18 04:10:46;;;;;;;18.90;12.73;;;8.00;99.90;;;;;;5054625;28;20332;-55
2022/01/18 04:13:13;;;;;;;19.33;14.20;;;8.00;99.90;;;;;;5054739;28;20236;-55
2022/01/18 04:15:40;;;;;;;19.57;15.43;;;8.00;99.90;;;;;;5054129;28;20275;-56
2022/01/18 04:18:22;;;;;;;21.20;14.90;;;8.00;99.90;;;;;;5054390;28;20210;-55
2022/01/18 04:29:03;;;;;;;19.83;14.00;;;7.70;99.90;;;;;;5054267;28;20201;-55
2022/01/18 04:31:30;;;;;;;19.87;14.77;;;7.70;99.90;;;;;;5054403;28;20237;-56
2022/01/18 04:33:57;;;;;;;18.80;14.47;;;7.70;99.90;;;;;;5054246;28;20229;-57
2022/01/18 04:36:27;;;;;;;19.20;14.77;;;7.80;99.90;;;;;;5053777;28;20321;-57
2022/01/18 04:38:54;;;;;;;23.00;14.33;;;7.90;99.90;;;;;;5053901;28;20209;-59
2022/01/18 04:41:26;;;;;;;23.00;14.80;;;7.70;99.90;;;;;;5053742;28;20226;-57
2022/01/18 04:44:08;;;;;;;20.03;15.07;;;7.50;99.90;;;;;;5053717;28;20213;-57
2022/01/18 04:49:20;;;;;;;24.33;14.60;;;7.70;99.90;;;;;;5053863;28;20228;-57
2022/01/18 04:51:48;;;;;;;21.87;15.03;;;7.70;99.90;;;;;;5053969;28;20291;-57
2022/01/18 04:54:16;;;;;;;23.20;14.60;;;7.80;99.90;;;;;;5053877;28;20213;-57
2022/01/18 04:59:27;;;;;;;20.00;15.17;;;8.00;99.90;;;;;;5053620;28;20584;-57
2022/01/18 05:01:55;;;;;;;21.87;15.03;;;8.00;99.90;;;;;;5053750;28;20221;-57
2022/01/18 05:04:21;;;;;;;23.60;14.57;;;8.00;99.90;;;;;;5053060;28;20704;-57
2022/01/18 05:06:52;;;;;;;17.63;14.47;;;7.90;99.90;;;;;;5053481;28;20253;-56
2022/01/18 05:09:18;;;;;;;19.57;14.07;;;7.90;99.90;;;;;;5053452;28;20751;-57
2022/01/18 05:11:52;;;;;;;19.73;13.30;;;8.00;99.90;;;;;;5053460;28;20225;-57
2022/01/18 05:14:27;;;;;;;18.93;13.90;;;8.00;99.90;;;;;;5053240;28;20661;-59
2022/01/18 05:17:00;;;;;;;20.97;14.10;;;8.00;99.90;;;;;;5052806;28;20316;-57
2022/01/18 05:19:39;;;;;;;19.93;13.60;;;8.00;99.90;;;;;;5053369;28;20290;-57
2022/01/18 05:24:51;;;;;;;19.13;13.83;;;7.90;99.90;;;;;;5053118;28;20800;-57
2022/01/18 05:27:18;;;;;;;18.53;13.90;;;7.80;99.90;;;;;;5052776;28;20614;-57
2022/01/18 05:29:45;;;;;;;18.30;14.50;;;7.80;99.90;;;;;;5053209;28;20216;-57
2022/01/18 05:32:11;;;;;;;18.73;14.53;;;7.80;99.90;;;;;;5052807;28;20279;-57
2022/01/18 05:34:38;;;;;;;20.90;14.50;;;7.90;99.90;;;;;;5053118;28;20252;-57
2022/01/18 05:37:06;;;;;;;21.70;16.13;;;7.90;99.90;;;;;;5052419;28;20587;-57
2022/01/18 05:39:33;;;;;;;25.57;18.77;;;8.00;99.90;;;;;;5052929;28;20206;-57
2022/01/18 05:42:00;;;;;;;20.27;14.87;;;8.00;99.90;;;;;;5052727;28;20701;-57
2022/01/18 05:44:26;;;;;;;21.57;15.43;;;8.00;99.90;;;;;;5052819;28;20267;-57
2022/01/18 05:46:53;;;;;;;24.60;15.53;;;7.90;99.90;;;;;;5052373;28;20251;-56
2022/01/18 05:49:20;;;;;;;21.73;15.90;;;7.80;99.90;;;;;;5052807;28;20206;-57
2022/01/18 05:51:47;;;;;;;23.10;15.93;;;7.80;99.90;;;;;;5052610;28;20325;-57
2022/01/18 05:54:15;;;;;;;21.63;15.80;;;7.80;99.90;;;;;;5052612;28;20259;-57
2022/01/18 05:56:42;;;;;;;22.27;15.27;;;7.80;99.90;;;;;;5052393;28;20226;-57
2022/01/18 05:59:10;;;;;;;21.40;14.90;;;7.80;99.90;;;;;;5052445;28;20677;-57
2022/01/18 06:01:46;;;;;;;30.20;20.10;;;7.80;99.90;;;;;;5052487;28;20221;-57
2022/01/18 06:06:49;;;;;;;24.47;17.97;;;7.80;99.90;;;;;;5052407;28;20216;-58
2022/01/18 06:07:01;;;;;;;30.30;20.70;;;7.80;99.90;;;;;;5051587;28;20201;-57
2022/01/18 06:09:29;;;;;;;22.63;16.20;;;7.90;99.90;;;;;;5052424;28;20296;-57
2022/01/18 06:11:56;;;;;;;24.00;17.10;;;7.80;99.90;;;;;;5052406;28;20229;-58
2022/01/18 06:14:22;;;;;;;22.73;17.20;;;7.90;99.90;;;;;;5052094;28;20205;-58
2022/01/18 06:16:49;;;;;;;24.17;16.43;;;7.80;99.90;;;;;;5050984;28;20723;-58
2022/01/18 06:19:16;;;;;;;21.90;16.03;;;7.90;99.90;;;;;;5051888;28;20217;-57
2022/01/18 06:21:43;;;;;;;27.83;16.70;;;7.90;99.90;;;;;;5052263;28;20709;-57
2022/01/18 06:24:11;;;;;;;24.93;16.87;;;7.90;99.90;;;;;;5052161;28;20206;-57
2022/01/18 06:26:40;;;;;;;23.53;16.17;;;8.00;99.90;;;;;;5051907;28;20205;-58
2022/01/18 06:29:06;;;;;;;25.07;18.00;;;8.00;99.90;;;;;;5052234;28;20335;-56
2022/01/18 06:31:33;;;;;;;25.77;16.73;;;8.10;99.90;;;;;;5051920;28;20230;-57
2022/01/18 06:34:00;;;;;;;24.97;16.87;;;8.10;99.90;;;;;;5051945;28;20674;-58
2022/01/18 06:36:26;;;;;;;23.37;17.27;;;8.10;99.90;;;;;;5051079;28;20716;-58
2022/01/18 06:38:53;;;;;;;25.90;16.83;;;8.10;99.90;;;;;;5052097;28;20201;-58
2022/01/18 06:41:20;;;;;;;23.57;16.83;;;8.10;99.90;;;;;;5051670;28;20229;-57
2022/01/18 06:43:48;;;;;;;48.60;31.33;;;8.10;99.90;;;;;;5051775;28;20209;-57
2022/01/18 06:46:15;;;;;;;33.23;20.30;;;8.00;99.90;;;;;;5051432;28;20202;-57
2022/01/18 06:48:44;;;;;;;26.00;17.97;;;7.90;99.90;;;;;;5052114;28;20271;-59
2022/01/18 06:51:11;;;;;;;25.80;16.80;;;7.90;99.90;;;;;;5051698;28;20237;-58
2022/01/18 06:53:44;;;;;;;29.67;20.30;;;7.80;99.90;;;;;;5051857;28;20560;-58
2022/01/18 06:56:11;;;;;;;24.67;17.20;;;7.70;99.90;;;;;;5051283;28;20211;-59
2022/01/18 06:58:39;;;;;;;25.67;18.10;;;7.50;99.90;;;;;;5051696;28;20209;-56
2022/01/18 07:01:07;;;;;;;28.47;18.00;;;7.30;99.90;;;;;;5051326;28;20774;-56
2022/01/18 07:03:34;;;;;;;22.73;15.80;;;7.10;99.90;;;;;;5051712;28;20239;-56
2022/01/18 07:06:00;;;;;;;25.43;17.00;;;6.90;99.90;;;;;;5051187;28;20689;-56
2022/01/18 07:08:27;;;;;;;25.37;17.77;;;6.80;99.90;;;;;;5051792;28;20213;-57
2022/01/18 07:10:54;;;;;;;26.83;17.10;;;6.60;99.90;;;;;;5051618;28;20229;-57
2022/01/18 07:13:20;;;;;;;28.60;18.37;;;6.20;99.90;;;;;;5051529;28;20210;-57
2022/01/18 07:15:47;;;;;;;25.80;17.97;;;6.00;99.90;;;;;;5051346;28;20209;-56
2022/01/18 07:18:15;;;;;;;27.33;18.90;;;5.70;99.90;;;;;;5051278;28;20222;-57
2022/01/18 07:20:42;;;;;;;27.63;18.40;;;5.60;99.90;;;;;;5051727;28;20248;-56
2022/01/18 07:23:12;;;;;;;29.70;19.40;;;5.50;99.90;;;;;;5051850;28;20213;-56
2022/01/18 07:25:42;;;;;;;30.10;19.13;;;5.40;99.90;;;;;;5051520;28;20642;-55
2022/01/18 07:28:09;;;;;;;31.07;19.13;;;5.50;99.90;;;;;;5054271;28;20186;-56
2022/01/18 07:30:36;;;;;;;30.43;19.30;;;5.50;99.90;;;;;;5055490;28;20213;-57
2022/01/18 07:33:03;;;;;;;28.97;18.50;;;5.60;99.90;;;;;;5055535;28;20589;-57
2022/01/18 07:35:33;;;;;;;30.40;19.97;;;5.70;99.90;;;;;;5055395;28;20201;-57
2022/01/18 07:38:00;;;;;;;29.20;20.17;;;5.90;99.90;;;;;;5054709;28;20319;-59
2022/01/18 07:40:27;;;;;;;31.70;20.30;;;6.00;99.90;;;;;;5054879;28;20205;-57
2022/01/18 07:42:54;;;;;;;28.83;19.73;;;6.20;99.90;;;;;;5055252;28;20209;-57
2022/01/18 07:45:22;;;;;;;31.80;20.77;;;6.40;99.90;;;;;;5054988;28;20245;-57
2022/01/18 07:47:48;;;;;;;29.77;18.43;;;6.50;99.90;;;;;;5054680;28;20372;-57
2022/01/18 07:50:15;;;;;;;30.83;19.17;;;6.60;99.90;;;;;;5054966;28;20205;-57
2022/01/18 07:52:43;;;;;;;29.93;18.77;;;6.80;99.90;;;;;;5055051;28;20230;-57
2022/01/18 07:55:10;;;;;;;29.60;19.13;;;6.80;99.90;;;;;;5054893;28;20201;-57
2022/01/18 07:57:41;;;;;;;28.73;19.77;;;6.80;99.90;;;;;;5054539;28;20225;-57
2022/01/18 08:00:09;;;;;;;34.17;20.20;;;6.80;99.90;;;;;;5054607;28;20201;-57
2022/01/18 08:02:36;;;;;;;30.33;19.97;;;6.80;99.90;;;;;;5054868;28;20229;-57
2022/01/18 08:05:03;;;;;;;31.07;19.27;;;6.80;99.90;;;;;;5054866;28;20259;-56
2022/01/18 08:07:30;;;;;;;31.10;18.90;;;6.70;99.90;;;;;;5054542;28;20210;-57
2022/01/18 08:09:58;;;;;;;34.50;19.00;;;6.70;99.90;;;;;;5054890;28;20263;-56
2022/01/18 08:12:25;;;;;;;31.60;19.53;;;6.80;99.90;;;;;;5054328;28;20230;-57
2022/01/18 08:14:54;;;;;;;34.33;20.63;;;6.80;99.90;;;;;;5054629;28;20213;-57
2022/01/18 08:17:22;;;;;;;28.37;18.00;;;6.80;99.90;;;;;;5054276;28;20226;-57
2022/01/18 08:19:49;;;;;;;29.13;18.43;;;6.80;99.90;;;;;;5054719;28;20768;-56
2022/01/18 08:22:16;;;;;;;30.63;19.17;;;6.70;99.90;;;;;;5054150;28;20233;-57
2022/01/18 08:24:42;;;;;;;32.30;19.27;;;6.80;99.90;;;;;;5054542;28;20201;-57
2022/01/18 08:27:11;;;;;;;28.67;19.03;;;6.80;99.90;;;;;;5054216;28;20271;-57
2022/01/18 08:29:38;;;;;;;28.47;18.07;;;6.80;99.90;;;;;;5054380;28;20560;-57
2022/01/18 08:32:06;;;;;;;29.83;18.13;;;6.70;99.90;;;;;;5054060;28;20241;-57
2022/01/18 08:34:33;;;;;;;27.27;17.40;;;6.70;99.90;;;;;;5053809;28;20210;-57
2022/01/18 08:37:00;;;;;;;28.40;18.73;;;6.70;99.90;;;;;;5053823;28;20225;-58
2022/01/18 08:39:26;;;;;;;28.97;18.20;;;6.70;99.90;;;;;;5054988;28;20685;-60
2022/01/18 08:41:54;;;;;;;24.13;16.80;;;6.70;99.90;;;;;;5055341;28;20303;-58
2022/01/18 08:44:22;;;;;;;25.97;16.10;;;6.70;99.90;;;;;;5055002;28;20217;-58
2022/01/18 08:46:49;;;;;;;26.57;17.30;;;6.80;99.90;;;;;;5055212;28;20202;-58
2022/01/18 08:49:16;;;;;;;27.93;17.10;;;6.90;99.90;;;;;;5054833;28;20264;-58
2022/01/18 08:51:42;;;;;;;33.77;17.30;;;7.00;99.90;;;;;;5055423;28;20230;-59
2022/01/18 08:54:09;;;;;;;26.87;16.33;;;7.10;99.90;;;;;;5055284;28;20206;-59
2022/01/18 08:56:36;;;;;;;27.17;16.40;;;7.20;99.90;;;;;;5054726;28;20205;-58
2022/01/18 08:59:02;;;;;;;28.53;17.90;;;7.20;99.90;;;;;;5054817;28;20209;-58
2022/01/18 09:01:30;;;;;;;26.17;17.07;;;7.30;99.90;;;;;;5054311;28;20283;-59
2022/01/18 09:03:57;;;;;;;26.03;16.23;;;7.30;99.90;;;;;;5054461;28;20214;-58
2022/01/18 09:06:25;;;;;;;28.70;15.17;;;7.20;99.90;;;;;;5053548;28;20232;-58
2022/01/18 09:08:56;;;;;;;21.63;13.97;;;7.30;99.90;;;;;;5053621;28;20665;-58
2022/01/18 09:11:24;;;;;;;23.27;14.50;;;7.30;99.90;;;;;;5053238;28;20230;-58
2022/01/18 09:13:52;;;;;;;20.60;12.30;;;7.30;99.90;;;;;;5053264;28;20271;-62
2022/01/18 09:16:18;;;;;;;21.97;14.30;;;7.30;99.90;;;;;;5053207;28;20209;-58
2022/01/18 09:18:47;;;;;;;25.10;13.87;;;7.30;99.90;;;;;;5053365;28;20228;-58
2022/01/18 09:21:13;;;;;;;20.90;13.43;;;7.30;99.90;;;;;;5053284;28;20225;-58
2022/01/18 09:23:42;;;;;;;19.13;11.40;;;7.30;99.90;;;;;;5053293;28;20201;-58
2022/01/18 09:26:08;;;;;;;19.33;11.10;;;7.40;99.90;;;;;;5052878;28;20217;-58
2022/01/18 09:28:35;;;;;;;16.37;11.00;;;7.30;99.90;;;;;;5053121;28;20201;-58
2022/01/18 09:31:02;;;;;;;18.53;11.33;;;7.10;99.90;;;;;;5052574;28;20591;-58
2022/01/18 09:33:29;;;;;;;20.87;12.40;;;7.10;99.90;;;;;;5052837;28;20209;-58
2022/01/18 09:35:57;;;;;;;13.90;9.37;;;7.10;99.90;;;;;;5052714;28;20201;-57
2022/01/18 09:38:24;;;;;;;15.33;9.10;;;7.20;99.90;;;;;;5052651;28;20607;-57
2022/01/18 09:40:51;;;;;;;15.30;9.67;;;7.20;99.90;;;;;;5052788;28;20234;-57
2022/01/18 09:43:18;;;;;;;14.87;9.70;;;7.10;99.90;;;;;;5052836;28;20628;-58
2022/01/18 09:45:46;;;;;;;17.50;10.17;;;7.10;99.90;;;;;;5052343;28;20677;-58
2022/01/18 09:48:14;;;;;;;16.00;10.27;;;7.20;99.90;;;;;;5052222;28;20305;-58
2022/01/18 09:50:43;;;;;;;11.90;8.43;;;7.20;99.90;;;;;;5052615;28;20740;-57
2022/01/18 09:53:12;;;;;;;12.67;8.10;;;7.10;99.90;;;;;;5052741;28;20209;-58
2022/01/18 09:55:41;;;;;;;12.50;8.67;;;7.10;99.90;;;;;;5052711;28;20202;-57
2022/01/18 09:58:08;;;;;;;12.10;7.60;;;7.00;99.90;;;;;;5052580;28;20229;-57
2022/01/18 10:00:37;;;;;;;12.33;8.30;;;7.00;99.90;;;;;;5052997;28;20223;-57
2022/01/18 10:03:09;;;;;;;17.83;10.60;;;7.10;99.90;;;;;;5052787;28;20677;-57
2022/01/18 10:05:37;;;;;;;18.33;11.57;;;7.10;99.90;;;;;;5052897;28;20205;-57
2022/01/18 10:08:05;;;;;;;17.23;11.80;;;7.20;99.90;;;;;;5052440;28;20206;-57
2022/01/18 10:10:42;;;;;;;19.07;11.93;;;7.10;99.90;;;;;;5052380;28;20678;-57
2022/01/18 10:13:16;;;;;;;18.00;11.50;;;7.10;99.90;;;;;;5053084;28;20212;-57
2022/01/18 10:16:02;;;;;;;20.50;11.77;;;7.30;99.90;;;;;;5052719;28;20292;-57
2022/01/18 10:18:40;;;;;;;17.47;11.40;;;7.40;99.90;;;;;;5042489;28;20237;-60
2022/01/18 10:21:08;;;;;;;17.77;11.17;;;7.50;99.90;;;;;;5051705;28;20231;-62
2022/01/18 10:23:36;;;;;;;17.57;11.43;;;7.80;99.90;;;;;;5049626;28;20202;-59
2022/01/18 10:26:20;;;;;;;18.70;11.53;;;8.10;99.90;;;;;;5051699;28;20209;-62
2022/01/18 10:28:48;;;;;;;15.03;10.27;;;8.30;99.90;;;;;;5050950;28;20669;-60
2022/01/18 10:31:26;;;;;;;16.70;10.77;;;8.50;99.90;;;;;;5067203;22;20241;-59
2022/01/18 10:34:12;;;;;;;15.87;10.03;;;8.70;99.90;;;;;;5023985;28;20719;-59
2022/01/18 10:36:53;;;;;;;18.30;10.07;;;8.90;99.90;;;;;;5032158;28;20210;-59
2022/01/18 10:39:22;;;;;;;15.30;9.20;;;9.00;99.90;;;;;;5032091;28;20313;-58
2022/01/18 10:41:50;;;;;;;13.83;9.13;;;9.30;99.90;;;;;;5031706;28;20257;-59
2022/01/18 10:44:18;;;;;;;16.17;9.00;;;9.50;99.90;;;;;;5031926;28;20206;-59
2022/01/18 10:46:48;;;;;;;15.00;9.30;;;9.80;99.90;;;;;;5031699;28;20638;-59
2022/01/18 10:49:27;;;;;;;13.90;8.77;;;10.00;99.90;;;;;;5032085;28;20736;-58
2022/01/18 10:51:58;;;;;;;14.27;9.77;;;10.50;99.90;;;;;;5031864;28;20232;-60
2022/01/18 10:54:35;;;;;;;14.20;9.17;;;10.90;99.90;;;;;;5031766;28;20698;-59
2022/01/18 10:57:06;;;;;;;11.73;8.17;;;11.30;99.90;;;;;;5031760;28;20584;-60
2022/01/18 10:59:34;;;;;;;11.33;8.43;;;11.60;99.90;;;;;;5031880;28;20593;-58
2022/01/18 11:02:13;;;;;;;10.53;7.33;;;11.60;99.90;;;;;;5032593;28;20748;-59
2022/01/18 11:04:42;;;;;;;9.53;6.87;;;11.50;99.90;;;;;;5035745;28;20245;-59
2022/01/18 11:07:11;;;;;;;8.77;6.37;;;11.40;99.90;;;;;;5035992;28;20210;-59
2022/01/18 11:09:38;;;;;;;7.87;6.10;;;11.10;99.90;;;;;;5036304;28;20210;-59
2022/01/18 11:12:07;;;;;;;7.80;5.47;;;10.60;99.90;;;;;;5035809;28;20226;-59
2022/01/18 11:14:37;;;;;;;8.50;5.37;;;9.90;99.90;;;;;;5035477;28;20578;-63
2022/01/18 11:17:05;;;;;;;9.43;5.47;;;9.40;99.90;;;;;;5035231;28;20287;-60
2022/01/18 11:19:35;;;;;;;9.53;5.43;;;9.10;99.90;;;;;;5035093;28;20226;-64
2022/01/18 11:22:06;;;;;;;6.47;4.80;;;8.80;99.90;;;;;;5035352;28;20630;-63
2022/01/18 11:24:37;;;;;;;8.57;5.20;;;8.40;99.90;;;;;;5034569;28;20206;-63
2022/01/18 11:27:08;;;;;;;6.87;4.97;;;8.20;99.90;;;;;;5035008;28;20256;-63
2022/01/18 11:29:36;;;;;;;7.97;5.33;;;8.00;99.90;;;;;;5034941;28;20588;-63
2022/01/18 11:32:03;;;;;;;8.17;5.40;;;7.90;99.90;;;;;;5035182;28;20253;-63
2022/01/18 11:34:49;;;;;;;9.60;4.67;;;8.10;99.90;;;;;;5035106;28;20209;-64
2022/01/18 11:37:18;;;;;;;5.07;3.93;;;8.30;99.90;;;;;;5034722;28;20206;-62
2022/01/18 11:39:45;;;;;;;6.73;3.20;;;8.40;99.90;;;;;;5035215;28;20276;-62
2022/01/18 11:42:14;;;;;;;6.80;3.17;;;8.40;99.90;;;;;;5034144;28;20316;-61
2022/01/18 11:44:40;;;;;;;5.67;3.13;;;8.30;99.90;;;;;;5035088;28;20203;-61
2022/01/18 11:47:08;;;;;;;5.80;3.17;;;8.30;99.90;;;;;;5034782;28;20206;-62
2022/01/18 11:49:36;;;;;;;5.77;3.27;;;8.20;99.90;;;;;;5034711;28;20622;-62
2022/01/18 11:52:06;;;;;;;6.67;4.13;;;8.20;99.90;;;;;;5035024;28;20321;-63
2022/01/18 11:54:43;;;;;;;7.13;4.17;;;8.00;99.90;;;;;;5034740;28;20309;-64
2022/01/18 11:57:37;;;;;;;6.23;3.70;;;7.80;99.90;;;;;;5034645;28;20260;-61
2022/01/18 12:00:23;;;;;;;6.93;3.57;;;7.70;99.90;;;;;;5034666;28;20206;-61
2022/01/18 12:02:54;;;;;;;5.10;3.87;;;7.60;99.90;;;;;;5034496;28;20226;-61
2022/01/18 12:05:24;;;;;;;5.60;3.70;;;7.50;99.90;;;;;;5034723;28;20268;-64
2022/01/18 12:08:00;;;;;;;6.10;3.90;;;7.50;99.90;;;;;;5034469;28;20206;-62
2022/01/18 12:10:49;;;;;;;6.40;3.93;;;7.30;99.90;;;;;;5034967;28;20244;-63
2022/01/18 12:13:38;;;;;;;6.47;3.60;;;7.40;99.90;;;;;;5033579;28;20210;-62
2022/01/18 12:16:10;;;;;;;4.77;3.17;;;7.50;99.90;;;;;;5034140;28;20883;-62
2022/01/18 12:18:58;;;;;;;6.07;3.63;;;7.60;99.90;;;;;;5034224;28;20234;-63
2022/01/18 12:21:28;;;;;;;8.20;3.47;;;7.80;99.90;;;;;;5034122;28;20713;-62
2022/01/18 12:23:56;;;;;;;7.23;3.40;;;8.10;99.90;;;;;;5033829;28;20206;-63
2022/01/18 12:26:37;;;;;;;5.30;3.30;;;8.30;99.90;;;;;;5033769;28;20849;-63
2022/01/18 12:29:34;;;;;;;7.20;3.63;;;8.60;99.90;;;;;;5034592;28;20217;-62
2022/01/18 12:32:27;;;;;;;7.07;3.30;;;8.80;99.90;;;;;;5033800;28;20608;-62
2022/01/18 12:35:22;;;;;;;10.70;3.23;;;9.00;99.90;;;;;;5034319;28;20289;-62
2022/01/18 12:37:49;;;;;;;5.37;2.93;;;9.00;99.90;;;;;;5034068;28;20218;-62
2022/01/18 12:40:48;;;;;;;15.47;6.83;;;9.10;99.90;;;;;;5033866;28;20671;-56
2022/01/18 12:46:02;;;;;;;23.30;16.27;;;9.60;99.90;;;;;;5034120;28;20206;-59
2022/01/18 12:48:31;;;;;;;5.60;3.27;;;9.70;99.90;;;;;;5033634;28;20203;-60
2022/01/18 12:51:00;;;;;;;5.63;4.23;;;9.80;99.90;;;;;;5033786;28;20210;-60
2022/01/18 12:53:39;;;;;;;7.03;4.77;;;9.70;99.90;;;;;;5033950;28;20213;-60
2022/01/18 12:56:09;;;;;;;5.10;3.07;;;9.60;99.90;;;;;;5033896;28;20308;-59
2022/01/18 12:58:38;;;;;;;11.20;5.17;;;9.90;99.90;;;;;;5033799;28;20232;-60
2022/01/18 13:01:09;;;;;;;8.57;3.60;;;10.20;99.90;;;;;;5033845;28;20231;-60
2022/01/18 13:03:38;;;;;;;5.47;3.20;;;10.60;99.90;;;;;;5034557;28;20618;-60
2022/01/18 13:06:07;;;;;;;6.70;3.83;;;10.90;99.90;;;;;;5033787;28;20203;-60
2022/01/18 13:08:46;;;;;;;5.57;3.00;;;11.40;99.90;;;;;;5033647;28;20252;-60
2022/01/18 13:11:14;;;;;;;4.30;2.73;;;11.40;99.90;;;;;;5033717;28;20234;-60
2022/01/18 13:13:41;;;;;;;6.10;3.30;;;11.50;99.90;;;;;;5033793;28;20954;-60
2022/01/18 13:25:03;;;;;;;5.70;2.00;;;11.10;99.90;;;;;;5033408;28;20212;-60
2022/01/18 13:27:35;;;;;;;5.70;2.03;;;10.90;99.90;;;;;;5033167;28;20210;-60
2022/01/18 13:30:20;;;;;;;3.70;1.83;;;10.60;99.90;;;;;;5033365;28;20202;-61
2022/01/18 13:32:50;;;;;;;4.83;2.33;;;10.60;99.90;;;;;;5033374;28;20721;-60
2022/01/18 13:35:24;;;;;;;4.80;2.03;;;10.30;99.90;;;;;;5033519;28;20206;-59
2022/01/18 13:37:51;;;;;;;4.37;2.30;;;9.90;99.90;;;;;;5033029;28;20264;-59
2022/01/18 13:40:20;;;;;;;3.40;2.10;;;9.60;99.90;;;;;;5032567;28;20222;-58
2022/01/18 13:42:49;;;;;;;3.97;2.33;;;9.60;99.90;;;;;;5032963;28;20629;-59
2022/01/18 13:45:19;;;;;;;4.40;2.37;;;9.70;99.90;;;;;;5032906;28;20206;-59
2022/01/18 13:47:51;;;;;;;5.90;2.90;;;9.70;99.90;;;;;;5032907;28;20206;-60
2022/01/18 13:50:36;;;;;;;4.50;2.47;;;9.60;99.90;;;;;;5033040;28;20202;-59
2022/01/18 13:53:05;;;;;;;4.33;2.70;;;9.40;99.90;;;;;;5032810;28;20238;-60
2022/01/18 13:55:33;;;;;;;5.37;3.10;;;9.30;99.90;;;;;;5032668;28;20202;-61